»·PEaware :: SWA700 KSFO-KSAN

SWA700 :: KSFO-KSAN

FLIGHT INFORMATION

Flight Status: Arrived
Operator:
Southwest Airlines
More flights by this operator :: More flights under this callsign
Pilot: Maximilliano F. (23467)
Aircraft: BOEING 737-800
(B738)
More flights by this aircraft type
Origin: KSFO San Francisco Intl
United States
Destination: KSAN San Diego Intl-Lindbergh
United States
More flights between these airports :: More routes between these airports
Route: SSTIK4 YYUNG LAX COMIX2
File this flight plan on PilotEdge
Remarks: RMK / SIMBRIEF
Altitude:
(Current/Filed)
37,000ft
Speed:
(Current/Filed)
452kts
Departed: 23-Oct-19 07:04 PM
Arrived: 23-Oct-19 08:13 PM
Distance/Time
Traveled:
387nm/1:08
Distance/Time
To Go:
Arrived

Flight Plot

Page will automatically refresh every two minutes.

Flight plan parsing failed; only flown route is shown


Map Options




Map Legend


Flown Route
Filed Route
Departure Airport
Arrival Airport
Navaid (VOR, NDB)
Fix

Horizontal Profiles

Position Reports

Time Latitude Longitude Heading Altitude Ground
Speed
23-Oct-19 18:31 37.612641 -122.384669 6 34ft 0kts
23-Oct-19 18:32 37.612641 -122.384669 6 34ft 0kts
23-Oct-19 18:33 37.612641 -122.384669 6 34ft 0kts
23-Oct-19 18:34 37.612641 -122.384669 6 34ft 0kts
23-Oct-19 18:35 37.612641 -122.384669 6 34ft 0kts
23-Oct-19 18:36 37.612641 -122.384669 6 34ft 0kts
23-Oct-19 18:37 37.612641 -122.384669 6 34ft 0kts
23-Oct-19 18:38 37.612641 -122.384669 6 34ft 0kts
23-Oct-19 18:39 37.612641 -122.384669 6 34ft 0kts
23-Oct-19 18:40 37.612641 -122.384669 6 34ft 0kts
23-Oct-19 18:41 37.612641 -122.384669 6 34ft 0kts
23-Oct-19 18:42 37.612641 -122.384669 6 34ft 0kts
23-Oct-19 18:43 37.612641 -122.384669 6 34ft 0kts
23-Oct-19 18:44 37.612641 -122.384669 6 34ft 0kts
23-Oct-19 18:45 37.612641 -122.384669 6 34ft 0kts
23-Oct-19 18:46 37.612641 -122.384669 6 34ft 0kts
23-Oct-19 18:47 37.612641 -122.384669 6 34ft 0kts
23-Oct-19 18:48 37.612641 -122.384669 6 34ft 0kts
23-Oct-19 18:49 37.612641 -122.384669 6 34ft 0kts
23-Oct-19 18:50 37.612362 -122.384707 6 34ft 2kts
23-Oct-19 18:51 37.611797 -122.384807 51 34ft 1kts
23-Oct-19 18:52 37.611780 -122.385024 102 34ft 0kts
23-Oct-19 18:53 37.611780 -122.385024 102 34ft 0kts
23-Oct-19 18:54 37.611780 -122.385022 102 34ft 0kts
23-Oct-19 18:55 37.611409 -122.384124 114 34ft 2kts
23-Oct-19 18:56 37.611407 -122.384119 114 34ft 0kts
23-Oct-19 18:57 37.611407 -122.384119 114 34ft 0kts
23-Oct-19 18:58 37.610831 -122.383483 203 33ft 6kts
23-Oct-19 18:59 37.608682 -122.384376 118 33ft 7kts
23-Oct-19 19:00 37.608474 -122.383891 117 32ft 0kts
23-Oct-19 19:01 37.608474 -122.383891 117 32ft 0kts
23-Oct-19 19:02 37.608309 -122.382717 45 31ft 9kts
23-Oct-19 19:03 37.636828 -122.363397 23 650ft 183kts
23-Oct-19 19:04 37.696716 -122.369291 329 3070ft 248kts
23-Oct-19 19:05 37.685021 -122.443605 197 6269ft 294kts
23-Oct-19 19:06 37.603063 -122.456265 186 9701ft 305kts
23-Oct-19 19:07 37.511723 -122.470990 187 12116ft 352kts
23-Oct-19 19:08 37.412041 -122.489030 189 15320ft 374kts
23-Oct-19 19:09 37.307291 -122.508522 188 18469ft 392kts
23-Oct-19 19:10 37.197996 -122.528800 188 18986ft 388kts
23-Oct-19 19:11 37.089717 -122.548814 188 20628ft 403kts
23-Oct-19 19:12 36.978131 -122.536491 158 23345ft 415kts
23-Oct-19 19:13 36.875812 -122.468230 147 25818ft 427kts
23-Oct-19 19:14 36.771893 -122.391886 147 28074ft 442kts
23-Oct-19 19:15 36.664185 -122.313099 147 30145ft 457kts
23-Oct-19 19:16 36.554545 -122.233191 145 32563ft 457kts
23-Oct-19 19:17 36.445909 -122.154251 144 34924ft 450kts
23-Oct-19 19:18 36.338661 -122.076567 144 36754ft 446kts
23-Oct-19 19:19 36.228892 -121.997282 145 36983ft 464kts
23-Oct-19 19:20 36.118771 -121.918073 145 36985ft 458kts
23-Oct-19 19:21 36.010571 -121.835143 134 36990ft 453kts
23-Oct-19 19:22 35.929013 -121.720254 122 36975ft 444kts
23-Oct-19 19:23 35.854011 -121.600693 122 36953ft 444kts
23-Oct-19 19:24 35.778037 -121.480233 122 36949ft 446kts
23-Oct-19 19:25 35.701840 -121.359839 122 36949ft 446kts
23-Oct-19 19:26 35.625124 -121.239038 123 36954ft 448kts
23-Oct-19 19:27 35.548442 -121.118721 123 36956ft 449kts
23-Oct-19 19:28 35.473892 -120.996308 120 36955ft 448kts
23-Oct-19 19:29 35.401797 -120.871440 120 36945ft 449kts
23-Oct-19 19:30 35.329115 -120.746577 120 36936ft 449kts
23-Oct-19 19:31 35.256442 -120.622154 120 36937ft 450kts
23-Oct-19 19:32 35.183590 -120.497869 120 36937ft 450kts
23-Oct-19 19:33 35.110556 -120.373714 121 36937ft 450kts
23-Oct-19 19:34 35.037049 -120.249175 121 36940ft 452kts
23-Oct-19 19:35 34.963398 -120.124854 121 36962ft 452kts
23-Oct-19 19:36 34.893530 -120.007312 121 36986ft 453kts
23-Oct-19 19:37 34.817354 -119.879635 122 36973ft 457kts
23-Oct-19 19:38 34.742653 -119.754815 122 36951ft 456kts
23-Oct-19 19:39 34.667926 -119.630420 122 36943ft 456kts
23-Oct-19 19:40 34.592853 -119.505885 122 36943ft 456kts
23-Oct-19 19:41 34.517786 -119.381794 122 36944ft 457kts
23-Oct-19 19:42 34.442463 -119.257682 123 36945ft 458kts
23-Oct-19 19:43 34.366900 -119.133630 123 36946ft 458kts
23-Oct-19 19:44 34.290879 -119.009262 123 36953ft 458kts
23-Oct-19 19:45 34.214717 -118.885091 123 36996ft 460kts
23-Oct-19 19:46 34.138348 -118.761016 123 36974ft 460kts
23-Oct-19 19:47 34.061574 -118.636711 123 36922ft 460kts
23-Oct-19 19:48 33.984338 -118.512094 124 36921ft 461kts
23-Oct-19 19:49 33.902462 -118.391460 131 35810ft 477kts
23-Oct-19 19:50 33.821499 -118.287397 130 33117ft 467kts
23-Oct-19 19:51 33.733373 -118.172652 129 29983ft 476kts
23-Oct-19 19:52 33.646379 -118.058401 129 27543ft 449kts
23-Oct-19 19:53 33.564149 -117.950778 129 25191ft 425kts
23-Oct-19 19:54 33.479822 -117.851046 133 22871ft 430kts
23-Oct-19 19:55 33.395129 -117.756721 136 20559ft 404kts
23-Oct-19 19:56 33.313659 -117.670041 136 18353ft 382kts
23-Oct-19 19:57 33.235694 -117.587026 136 16234ft 385kts
23-Oct-19 19:58 33.157697 -117.505077 137 14070ft 363kts
23-Oct-19 20:00 33.079325 -117.435283 144 12062ft 343kts
23-Oct-19 20:01 33.001204 -117.369997 143 10678ft 321kts
23-Oct-19 20:02 32.933957 -117.313611 144 9891ft 278kts
23-Oct-19 20:03 32.871999 -117.262007 144 8861ft 272kts
23-Oct-19 20:04 32.816778 -117.207312 122 7670ft 249kts
23-Oct-19 20:05 32.793795 -117.131404 103 6457ft 246kts
23-Oct-19 20:06 32.775767 -117.055948 111 5960ft 228kts
23-Oct-19 20:07 32.750969 -116.986133 108 4642ft 229kts
23-Oct-19 20:08 32.708469 -116.956411 199 4002ft 212kts
23-Oct-19 20:09 32.694084 -117.011639 277 3545ft 183kts
23-Oct-19 20:10 32.703797 -117.068411 287 2333ft 174kts
23-Oct-19 20:11 32.717813 -117.123019 285 1325ft 158kts
23-Oct-19 20:12 32.729365 -117.172600 285 245ft 161kts
23-Oct-19 20:13 32.736373 -117.201455 279 18ft 25kts

Navigation Log

Ident Type
Flight plan parsing failed, navigation log unavailable